This is the latest recevied weather packets stored in our database for station/object K1BES. If no packets are shown the sender has not sent any weather packets the latest 10 day(s).
| Time | Temp. | Humidity | Pressure | Rain* | Wind** | Luminosity | Snow |
|---|---|---|---|---|---|---|---|
| 1778006241 | 28.89° C | 66% | 1016.5 hPa | 0 mm | - | 915 W/m² | - |
| 1778005939 | 29.44° C | 63% | 1016.7 hPa | 0 mm | - | 890 W/m² | - |
| 1778005634 | 28.89° C | 66% | 1016.9 hPa | 0 mm | - | 1014 W/m² | - |
| 1778005332 | 28.89° C | 66% | 1017 hPa | 0 mm | - | 1030 W/m² | - |
| 1778005028 | 28.89° C | 65% | 1017 hPa | 0 mm | - | 1034 W/m² | - |
| 1778004726 | 28.89° C | 65% | 1016.9 hPa | 0 mm | - | 1047 W/m² | - |
| 1778004422 | 29.44° C | 63% | 1017.1 hPa | 0 mm | - | 883 W/m² | - |
| 1778004119 | 28.89° C | 64% | 1017.1 hPa | 0 mm | - | 992 W/m² | - |
| 1778003815 | 29.44° C | 64% | 1017 hPa | 0 mm | - | 1001 W/m² | - |
| 1778003511 | 29.44° C | 63% | 1017.2 hPa | 0 mm | - | 1076 W/m² | - |
| 1778003208 | 29.44° C | 64% | 1017.2 hPa | 0 mm | - | 1046 W/m² | - |
| 1778002904 | 29.44° C | 64% | 1017.1 hPa | 0 mm | - | 1041 W/m² | - |
| 1778002601 | 29.44° C | 64% | 1017.4 hPa | 0 mm | - | 1070 W/m² | - |
| 1778002298 | 30° C | 63% | 1017.2 hPa | 0 mm | - | 1064 W/m² | - |
| 1778001995 | 29.44° C | 62% | 1017.5 hPa | 0 mm | - | 1074 W/m² | - |
| 1778001692 | 29.44° C | 63% | 1017.6 hPa | 0 mm | - | 1079 W/m² | - |
| 1778001392 | 29.44° C | 63% | 1017.8 hPa | 0 mm | - | 1036 W/m² | - |
| 1778001089 | 28.89° C | 65% | 1017.5 hPa | 0 mm | - | 1001 W/m² | - |
| 1778000787 | 28.89° C | 65% | 1017.4 hPa | 0 mm | - | 1054 W/m² | - |
| 1778000483 | 28.89° C | 65% | 1017.6 hPa | 0 mm | - | 1072 W/m² | - |
| 1778000178 | 29.44° C | 64% | 1017.6 hPa | 0 mm | - | 965 W/m² | - |
| 1777999874 | 28.89° C | 65% | 1017.8 hPa | 0 mm | - | 1013 W/m² | - |
| 1777999570 | 28.89° C | 65% | 1017.5 hPa | 0 mm | - | 1066 W/m² | - |
| 1777999268 | 28.33° C | 66% | 1017.6 hPa | 0 mm | - | 1015 W/m² | - |
| 1777998966 | 29.44° C | 64% | 1017.8 hPa | 0 mm | - | 265 W/m² | - |
* Rain latest hour (hover to see other rain measurements)
** Current wind speed in m/s (hover to see current wind gust speed)